Time;durP1;ratioP1;P1;durP2;ratioP2;P2;SDS_P1;SDS_P2;PMS_P1;PMS_P2;Temp;Humidity;BMP_temperature;BMP_pressure;BME280_temperature;BME280_humidity;BME280_pressure;Samples;Min_cycle;Max_cycle;Signal;HPM_P1;HPM_P2
2022/07/15 00:00:18;;;;;;;3.10;1.60;;;;;204.60;224519.00;;;;5060395;28;20257;-66
2022/07/15 00:03:04;;;;;;;2.13;1.93;;;;;204.60;224519.00;;;;5057844;28;20329;-66
2022/07/15 00:05:52;;;;;;;1.60;1.50;;;;;204.60;224519.00;;;;5065708;28;20776;-66
2022/07/15 00:08:38;;;;;;;3.47;1.80;;;;;204.60;224519.00;;;;5066418;28;20237;-65
2022/07/15 00:11:24;;;;;;;5.07;1.60;;;;;204.60;224519.00;;;;5064618;28;20833;-66
2022/07/15 00:14:11;;;;;;;2.30;1.60;;;;;204.60;224519.00;;;;5058578;28;20241;-67
2022/07/15 00:16:57;;;;;;;2.67;1.77;;;;;204.60;224519.00;;;;5059981;28;20225;-67
2022/07/15 00:19:43;;;;;;;2.83;1.83;;;;;204.60;224519.00;;;;5064907;28;20241;-67
2022/07/15 00:22:31;;;;;;;3.63;2.00;;;;;204.60;224519.00;;;;5068575;28;20267;-67
2022/07/15 00:25:18;;;;;;;2.97;1.67;;;;;204.60;224519.00;;;;5062443;28;20728;-67
2022/07/15 00:28:07;;;;;;;2.97;1.70;;;;;204.60;224519.00;;;;5060730;28;20240;-66
2022/07/15 00:30:54;;;;;;;2.20;1.70;;;;;204.60;224519.00;;;;5060226;28;20915;-65
2022/07/15 00:33:40;;;;;;;4.73;1.80;;;;;204.60;224519.00;;;;5055314;28;20680;-67
2022/07/15 00:36:27;;;;;;;4.00;1.80;;;;;204.60;224519.00;;;;5063013;28;20351;-67
2022/07/15 00:39:15;;;;;;;1.87;1.73;;;;;204.60;224519.00;;;;5062203;28;20240;-67
2022/07/15 00:42:01;;;;;;;8.30;1.80;;;;;204.60;224519.00;;;;5058359;28;20303;-66
2022/07/15 00:44:47;;;;;;;6.07;1.73;;;;;204.60;224519.00;;;;5057310;28;20237;-68
2022/07/15 00:47:35;;;;;;;4.07;1.83;;;;;204.60;224519.00;;;;5062341;28;20233;-67
2022/07/15 00:50:22;;;;;;;2.40;1.43;;;;;204.60;224519.00;;;;5063946;28;20615;-65
2022/07/15 00:53:18;;;;;;;3.20;1.77;;;;;204.60;224519.00;;;;5056628;28;20728;-67
2022/07/15 00:56:09;;;;;;;3.53;1.90;;;;;204.60;224519.00;;;;5061833;28;20235;-66
2022/07/15 00:58:58;;;;;;;3.87;1.63;;;;;204.60;224519.00;;;;5062885;28;20627;-66
2022/07/15 01:01:46;;;;;;;3.57;2.00;;;;;204.60;224519.00;;;;5059134;28;20903;-67
2022/07/15 01:04:34;;;;;;;2.43;1.80;;;;;204.60;224519.00;;;;5063360;28;20249;-67
2022/07/15 01:07:20;;;;;;;4.23;1.80;;;;;204.60;224519.00;;;;5062679;28;20362;-67
2022/07/15 01:10:07;;;;;;;4.27;1.90;;;;;204.60;224519.00;;;;5060667;28;20236;-66
2022/07/15 01:12:55;;;;;;;5.40;2.03;;;;;204.60;224519.00;;;;5059919;28;20277;-67
2022/07/15 01:15:42;;;;;;;3.00;1.50;;;;;204.60;224519.00;;;;5059043;28;20278;-66
2022/07/15 01:18:28;;;;;;;2.07;1.63;;;;;204.60;224519.00;;;;5067490;28;20339;-65
2022/07/15 01:21:16;;;;;;;3.80;1.73;;;;;204.60;224519.00;;;;5063325;28;20280;-65
2022/07/15 01:24:02;;;;;;;3.77;1.80;;;;;204.60;224519.00;;;;5057902;28;20236;-67
2022/07/15 01:26:49;;;;;;;5.00;1.90;;;;;204.60;224519.00;;;;5063205;28;20351;-67
2022/07/15 01:29:35;;;;;;;2.77;1.97;;;;;204.60;224519.00;;;;5066258;28;20300;-67
2022/07/15 01:32:21;;;;;;;4.63;1.93;;;;;204.60;224519.00;;;;5059270;28;20232;-66
2022/07/15 01:35:09;;;;;;;1.87;1.53;;;;;204.60;224519.00;;;;5057591;28;20244;-65
2022/07/15 01:37:57;;;;;;;2.63;1.73;;;;;204.60;224519.00;;;;5065380;28;20763;-66
2022/07/15 01:40:44;;;;;;;2.33;1.60;;;;;204.60;224519.00;;;;5066903;28;20807;-68
2022/07/15 01:43:30;;;;;;;6.83;2.13;;;;;204.60;224519.00;;;;5062944;28;20688;-67
2022/07/15 01:46:16;;;;;;;2.10;1.70;;;;;204.60;224519.00;;;;5057090;28;20317;-67
2022/07/15 01:52:09;;;;;;;4.17;1.70;;;;;204.60;224519.00;;;;5060885;28;20240;-68
2022/07/15 01:54:56;;;;;;;6.07;1.83;;;;;204.60;224519.00;;;;5064967;28;20231;-66
2022/07/15 01:57:43;;;;;;;3.43;1.90;;;;;204.60;224519.00;;;;5064889;28;20227;-66
2022/07/15 02:00:30;;;;;;;2.77;1.40;;;;;204.60;224519.00;;;;5061052;28;20668;-65
2022/07/15 02:03:16;;;;;;;3.93;1.80;;;;;204.60;224519.00;;;;5060811;28;20760;-66
2022/07/15 02:06:04;;;;;;;6.00;1.83;;;;;204.60;224519.00;;;;5061411;28;20371;-64
2022/07/15 02:08:50;;;;;;;1.87;1.67;;;;;204.60;224519.00;;;;5056576;28;20248;-67
2022/07/15 02:11:38;;;;;;;3.03;1.50;;;;;204.60;224519.00;;;;5061989;28;20235;-66
2022/07/15 02:14:25;;;;;;;2.27;1.53;;;;;204.60;224519.00;;;;5063144;28;20240;-66
2022/07/15 02:17:11;;;;;;;1.73;1.57;;;;;204.60;224519.00;;;;5059074;28;20233;-67
2022/07/15 02:19:57;;;;;;;1.80;1.53;;;;;204.60;224519.00;;;;5062153;28;20232;-68
2022/07/15 02:22:43;;;;;;;2.63;1.80;;;;;204.60;224519.00;;;;5058079;28;20299;-65
2022/07/15 02:25:32;;;;;;;3.60;1.90;;;;;204.60;224519.00;;;;5060561;28;20810;-66
2022/07/15 02:28:20;;;;;;;5.03;1.70;;;;;204.60;224519.00;;;;5058093;28;20358;-65
2022/07/15 02:31:06;;;;;;;4.70;1.90;;;;;204.60;224519.00;;;;5065373;28;20236;-66
2022/07/15 02:33:52;;;;;;;2.73;1.83;;;;;204.60;224519.00;;;;5062663;28;20239;-65
2022/07/15 02:36:39;;;;;;;4.80;1.93;;;;;204.60;224519.00;;;;5054977;28;20493;-65
2022/07/15 02:39:25;;;;;;;2.43;1.63;;;;;204.60;224519.00;;;;5060278;28;20231;-65
2022/07/15 02:42:12;;;;;;;1.83;1.73;;;;;204.60;224519.00;;;;5057810;28;20445;-66
2022/07/15 02:44:59;;;;;;;3.97;2.07;;;;;204.60;224519.00;;;;5065484;28;20224;-67
2022/07/15 02:47:46;;;;;;;3.50;1.70;;;;;204.60;224519.00;;;;5065641;28;20232;-67
2022/07/15 02:50:33;;;;;;;2.17;1.97;;;;;204.60;224519.00;;;;5062947;28;20298;-68
2022/07/15 02:53:20;;;;;;;2.97;1.90;;;;;204.60;224519.00;;;;5057143;28;20262;-67
2022/07/15 02:56:07;;;;;;;3.83;1.70;;;;;204.60;224519.00;;;;5060766;28;20366;-67
2022/07/15 02:58:53;;;;;;;2.30;1.73;;;;;204.60;224519.00;;;;5058970;28;20232;-66
2022/07/15 03:01:41;;;;;;;3.13;1.50;;;;;204.60;224519.00;;;;5059005;28;20231;-64
2022/07/15 03:04:28;;;;;;;2.33;1.70;;;;;204.60;224519.00;;;;5056622;28;20736;-65
2022/07/15 03:07:14;;;;;;;4.80;2.90;;;;;204.60;224519.00;;;;5054536;28;20232;-66
2022/07/15 03:10:01;;;;;;;5.13;2.07;;;;;204.60;224519.00;;;;5057480;28;20240;-65
2022/07/15 03:12:47;;;;;;;2.97;2.00;;;;;204.60;224519.00;;;;5056349;28;20232;-67
2022/07/15 03:15:33;;;;;;;4.47;1.80;;;;;204.60;224519.00;;;;5053916;28;20575;-67
2022/07/15 03:18:21;;;;;;;2.43;1.60;;;;;204.60;224519.00;;;;5055766;28;20999;-67
2022/07/15 03:21:07;;;;;;;4.40;1.70;;;;;204.60;224519.00;;;;5044045;28;20236;-69
2022/07/15 03:23:54;;;;;;;4.10;1.87;;;;;204.60;224519.00;;;;5059146;28;20370;-66
2022/07/15 03:26:40;;;;;;;5.97;1.73;;;;;204.60;224519.00;;;;5063923;28;20231;-65
2022/07/15 03:29:28;;;;;;;5.77;1.70;;;;;204.60;224519.00;;;;5063131;28;20231;-66
2022/07/15 03:32:15;;;;;;;2.03;1.53;;;;;204.60;224519.00;;;;5062505;28;20227;-65
2022/07/15 03:35:03;;;;;;;4.30;1.87;;;;;204.60;224519.00;;;;5065660;28;20317;-67
2022/07/15 03:37:49;;;;;;;3.73;1.80;;;;;204.60;224519.00;;;;5057509;28;20243;-68
2022/07/15 03:40:36;;;;;;;1.90;1.70;;;;;204.60;224519.00;;;;5067738;28;20608;-65
2022/07/15 03:43:23;;;;;;;7.90;2.13;;;;;204.60;224519.00;;;;5062175;28;20325;-67
2022/07/15 03:46:10;;;;;;;3.07;1.90;;;;;204.60;224519.00;;;;5062696;28;20472;-66
2022/07/15 03:48:57;;;;;;;4.43;1.70;;;;;204.60;224519.00;;;;5068717;28;20231;-65
2022/07/15 03:51:45;;;;;;;3.50;1.57;;;;;204.60;224519.00;;;;5064262;28;20298;-65
2022/07/15 03:54:31;;;;;;;3.10;1.70;;;;;204.60;224519.00;;;;5067570;28;20236;-66
2022/07/15 03:57:17;;;;;;;1.87;1.63;;;;;204.60;224519.00;;;;5062286;28;20240;-65
2022/07/15 04:00:04;;;;;;;3.03;1.70;;;;;204.60;224519.00;;;;5064696;28;20596;-65
2022/07/15 04:02:51;;;;;;;2.50;2.03;;;;;204.60;224519.00;;;;5067435;28;20243;-66
2022/07/15 04:05:38;;;;;;;1.90;1.70;;;;;204.60;224519.00;;;;5068179;28;20251;-67
2022/07/15 04:08:26;;;;;;;1.70;1.60;;;;;204.60;224519.00;;;;5064243;28;20272;-66
2022/07/15 04:11:13;;;;;;;2.40;1.80;;;;;204.60;224519.00;;;;5060980;28;20228;-65
2022/07/15 04:14:00;;;;;;;3.87;1.70;;;;;204.60;224519.00;;;;5067685;28;20231;-65
2022/07/15 04:16:46;;;;;;;2.00;1.80;;;;;204.60;224519.00;;;;5063359;28;20231;-65
2022/07/15 04:19:33;;;;;;;1.73;1.63;;;;;204.60;224519.00;;;;5068833;28;20378;-67
2022/07/15 04:22:19;;;;;;;2.00;1.70;;;;;204.60;224519.00;;;;5062554;28;20236;-66
2022/07/15 04:25:09;;;;;;;1.97;1.77;;;;;204.60;224519.00;;;;5066038;28;20232;-66
2022/07/15 04:27:55;;;;;;;3.43;1.73;;;;;204.60;224519.00;;;;5059845;28;20774;-65
2022/07/15 04:30:41;;;;;;;1.80;1.70;;;;;204.60;224519.00;;;;5066184;28;20244;-66
2022/07/15 04:33:27;;;;;;;4.63;1.80;;;;;204.60;224519.00;;;;5063413;28;20240;-66
2022/07/15 04:36:13;;;;;;;3.00;2.00;;;;;204.60;224519.00;;;;5058658;28;20318;-66
2022/07/15 04:39:00;;;;;;;3.73;1.60;;;;;204.60;224519.00;;;;5061915;28;20305;-65
2022/07/15 04:41:50;;;;;;;3.33;1.43;;;;;204.60;224519.00;;;;5063453;28;20236;-66
2022/07/15 04:44:36;;;;;;;1.63;1.43;;;;;204.60;224519.00;;;;5057327;28;20258;-66
2022/07/15 04:47:22;;;;;;;6.00;2.30;;;;;204.60;224519.00;;;;5064578;28;20351;-66
2022/07/15 04:53:19;;;;;;;4.60;1.97;;;;;204.60;224519.00;;;;5054142;28;20278;-67
2022/07/15 04:56:06;;;;;;;6.10;1.80;;;;;204.60;224519.00;;;;5063727;28;20715;-67
2022/07/15 04:58:54;;;;;;;5.23;1.90;;;;;204.60;224519.00;;;;5062469;28;20366;-66
2022/07/15 05:01:40;;;;;;;3.17;2.10;;;;;204.60;224519.00;;;;5062547;28;20265;-66
2022/07/15 05:04:26;;;;;;;3.77;1.87;;;;;204.60;224519.00;;;;5062827;28;20243;-68
2022/07/15 05:07:13;;;;;;;2.17;1.70;;;;;204.60;224519.00;;;;5068156;28;20228;-66
2022/07/15 05:09:59;;;;;;;4.67;2.17;;;;;204.60;224519.00;;;;5066885;28;20232;-67
2022/07/15 05:12:45;;;;;;;4.27;2.00;;;;;204.60;224519.00;;;;5064828;28;20330;-67
2022/07/15 05:15:33;;;;;;;5.93;2.43;;;;;204.60;224519.00;;;;5067812;28;20751;-66
2022/07/15 05:18:20;;;;;;;3.43;2.07;;;;;204.60;224519.00;;;;5064008;28;20224;-68
2022/07/15 05:21:06;;;;;;;3.73;1.80;;;;;204.60;224519.00;;;;5054878;28;20345;-67
2022/07/15 05:23:53;;;;;;;5.43;1.90;;;;;204.60;224519.00;;;;5050964;28;20610;-66
2022/07/15 05:27:00;;;;;;;3.77;2.00;;;;;204.60;224519.00;;;;5053727;28;20278;-67
2022/07/15 05:29:46;;;;;;;2.40;1.73;;;;;204.60;224519.00;;;;5053362;28;20243;-65
2022/07/15 05:32:34;;;;;;;4.23;2.37;;;;;204.60;224519.00;;;;5051480;28;20228;-66
2022/07/15 05:35:21;;;;;;;6.20;2.23;;;;;204.60;224519.00;;;;5061473;28;20326;-66
2022/07/15 05:38:07;;;;;;;3.53;1.90;;;;;204.60;224519.00;;;;5065530;28;20604;-68
2022/07/15 05:40:54;;;;;;;4.23;2.00;;;;;204.60;224519.00;;;;5062580;28;20224;-67
2022/07/15 05:43:40;;;;;;;5.03;2.30;;;;;204.60;224519.00;;;;5062829;28;20330;-67
2022/07/15 05:46:27;;;;;;;5.00;2.00;;;;;204.60;224519.00;;;;5065013;28;20235;-66
2022/07/15 05:49:15;;;;;;;3.97;1.87;;;;;204.60;224519.00;;;;5053592;28;20223;-67
2022/07/15 05:52:01;;;;;;;2.67;2.00;;;;;204.60;224519.00;;;;5052279;28;20236;-67
2022/07/15 05:54:47;;;;;;;4.53;1.83;;;;;204.60;224519.00;;;;5054898;28;20253;-67
2022/07/15 05:57:34;;;;;;;7.00;1.97;;;;;204.60;224519.00;;;;5061646;28;20302;-67
2022/07/15 06:00:28;;;;;;;3.43;1.60;;;;;204.60;224519.00;;;;5055374;28;20232;-68
2022/07/15 06:03:14;;;;;;;3.30;1.83;;;;;204.60;224519.00;;;;5054361;28;20235;-67
2022/07/15 06:06:03;;;;;;;4.37;1.90;;;;;204.60;224519.00;;;;5062566;28;20232;-67
2022/07/15 06:08:49;;;;;;;4.60;2.23;;;;;204.60;224519.00;;;;5062564;28;20240;-67
2022/07/15 06:11:35;;;;;;;5.67;2.03;;;;;204.60;224519.00;;;;5059925;28;20237;-67
2022/07/15 06:14:22;;;;;;;4.73;1.90;;;;;204.60;224519.00;;;;5058875;28;20248;-67
2022/07/15 06:17:08;;;;;;;4.33;1.90;;;;;204.60;224519.00;;;;5057275;28;20228;-67
2022/07/15 06:19:54;;;;;;;3.03;2.00;;;;;204.60;224519.00;;;;5059123;28;20671;-68
2022/07/15 06:22:42;;;;;;;4.73;2.17;;;;;204.60;224519.00;;;;5060642;28;20704;-68
2022/07/15 06:25:29;;;;;;;2.67;2.00;;;;;204.60;224519.00;;;;5060344;28;20225;-67
2022/07/15 06:28:15;;;;;;;3.93;2.40;;;;;204.60;224519.00;;;;5059701;28;20216;-67
2022/07/15 06:31:01;;;;;;;4.93;1.90;;;;;204.60;224519.00;;;;5063767;28;20241;-66
2022/07/15 06:33:48;;;;;;;3.37;1.80;;;;;204.60;224519.00;;;;5064262;28;20745;-66
2022/07/15 06:36:34;;;;;;;4.57;2.30;;;;;204.60;224519.00;;;;5062578;28;20251;-65
2022/07/15 06:39:21;;;;;;;6.03;1.50;;;;;204.60;224519.00;;;;5063509;28;20226;-66
2022/07/15 06:42:10;;;;;;;2.93;1.50;;;;;204.60;224519.00;;;;5063918;28;20226;-66
2022/07/15 06:44:56;;;;;;;2.30;1.70;;;;;204.60;224519.00;;;;5058864;28;20241;-66
2022/07/15 06:47:43;;;;;;;4.70;1.30;;;;;204.60;224519.00;;;;5063711;28;20315;-66
2022/07/15 06:50:29;;;;;;;2.20;1.57;;;;;204.60;224519.00;;;;5065953;28;20231;-67
2022/07/15 06:53:16;;;;;;;2.33;1.43;;;;;204.60;224519.00;;;;5063820;28;20229;-66
2022/07/15 06:56:03;;;;;;;4.10;1.27;;;;;204.60;224519.00;;;;5064244;28;20315;-66
2022/07/15 06:58:50;;;;;;;1.27;1.07;;;;;204.60;224519.00;;;;5059465;28;20229;-65
2022/07/15 07:01:38;;;;;;;2.03;1.10;;;;;204.60;224519.00;;;;5058920;28;20284;-67
2022/07/15 07:04:24;;;;;;;4.57;1.27;;;;;204.60;224519.00;;;;5064580;28;20754;-66
2022/07/15 07:07:10;;;;;;;3.03;1.00;;;;;204.60;224519.00;;;;5045166;28;20285;-65
2022/07/15 07:09:56;;;;;;;5.93;1.27;;;;;204.60;224519.00;;;;5062536;28;20335;-68
2022/07/15 07:12:44;;;;;;;7.03;1.30;;;;;204.60;224519.00;;;;5059282;28;20321;-66
2022/07/15 07:15:30;;;;;;;1.50;1.00;;;;;204.60;224519.00;;;;5058703;28;20292;-67
2022/07/15 07:18:16;;;;;;;3.37;1.50;;;;;204.60;224519.00;;;;5060226;28;20364;-67
2022/07/15 07:21:03;;;;;;;5.30;1.30;;;;;204.60;224519.00;;;;5062717;28;20374;-67
2022/07/15 07:23:49;;;;;;;2.67;1.10;;;;;204.60;224519.00;;;;5061656;28;20248;-66
2022/07/15 07:26:37;;;;;;;5.13;1.40;;;;;204.60;224519.00;;;;5059864;28;20298;-65
2022/07/15 07:29:25;;;;;;;1.87;1.17;;;;;204.60;224519.00;;;;5058171;28;20248;-66
2022/07/15 07:32:11;;;;;;;5.83;1.50;;;;;204.60;224519.00;;;;5060942;28;20318;-65
2022/07/15 07:34:58;;;;;;;2.37;1.13;;;;;204.60;224519.00;;;;5065324;28;20740;-67
2022/07/15 07:37:44;;;;;;;1.07;0.90;;;;;204.60;224519.00;;;;5064168;28;20314;-67
2022/07/15 07:40:31;;;;;;;4.33;1.20;;;;;204.60;224519.00;;;;5059900;28;20256;-67
2022/07/15 07:43:18;;;;;;;2.47;1.30;;;;;204.60;224519.00;;;;5057436;28;20289;-66
2022/07/15 07:46:06;;;;;;;5.07;1.60;;;;;204.60;224519.00;;;;5064959;28;20762;-66
2022/07/15 07:48:52;;;;;;;3.97;1.40;;;;;204.60;224519.00;;;;5057755;28;20231;-67
2022/07/15 07:51:59;;;;;;;2.37;1.10;;;;;204.60;224519.00;;;;5058321;28;20235;-67
2022/07/15 07:54:45;;;;;;;8.13;1.40;;;;;204.60;224519.00;;;;5053685;28;20232;-66
2022/07/15 07:57:32;;;;;;;2.30;1.23;;;;;204.60;224519.00;;;;5053829;28;20236;-66
2022/07/15 08:00:19;;;;;;;5.23;1.43;;;;;204.60;224519.00;;;;5056081;28;20839;-67
2022/07/15 08:03:07;;;;;;;4.63;1.13;;;;;204.60;224519.00;;;;5059806;28;20733;-65
2022/07/15 08:05:54;;;;;;;10.53;4.10;;;;;204.60;224519.00;;;;5058496;28;20754;-69
2022/07/15 08:08:40;;;;;;;5.37;1.77;;;;;204.60;224519.00;;;;5060170;28;20236;-69
2022/07/15 08:11:26;;;;;;;2.70;1.27;;;;;204.60;224519.00;;;;5061415;28;20334;-69
2022/07/15 08:14:13;;;;;;;1.40;1.27;;;;;204.60;224519.00;;;;5055951;28;20314;-66
2022/07/15 08:16:59;;;;;;;5.13;1.20;;;;;204.60;224519.00;;;;5061539;28;20224;-66
2022/07/15 08:19:47;;;;;;;1.50;0.90;;;;;204.60;224519.00;;;;5055454;28;20232;-68
2022/07/15 08:22:34;;;;;;;5.03;1.30;;;;;204.60;224519.00;;;;5059015;28;20229;-66
2022/07/15 08:25:20;;;;;;;2.10;1.00;;;;;204.60;224519.00;;;;5059468;28;20236;-65
2022/07/15 08:28:07;;;;;;;4.60;1.10;;;;;204.60;224519.00;;;;5065226;28;20252;-66
2022/07/15 08:30:54;;;;;;;1.67;1.13;;;;;204.60;224519.00;;;;5063649;28;20228;-65
2022/07/15 08:33:40;;;;;;;1.77;1.00;;;;;204.60;224519.00;;;;5062532;28;20721;-68
2022/07/15 08:36:28;;;;;;;3.63;1.20;;;;;204.60;224519.00;;;;5058418;28;20247;-67
2022/07/15 08:39:15;;;;;;;1.23;0.97;;;;;204.60;224519.00;;;;5063444;28;20266;-67
2022/07/15 08:42:01;;;;;;;3.27;1.00;;;;;204.60;224519.00;;;;5071173;28;20315;-66
2022/07/15 08:44:48;;;;;;;0.80;0.80;;;;;204.60;224519.00;;;;5066632;28;20305;-67
2022/07/15 08:47:37;;;;;;;2.30;1.20;;;;;204.60;224519.00;;;;5065376;28;20347;-66
2022/07/15 08:50:42;;;;;;;2.77;1.07;;;;;204.60;224519.00;;;;5060679;28;20231;-66
2022/07/15 08:53:31;;;;;;;2.43;1.00;;;;;204.60;224519.00;;;;5061066;28;20239;-66
2022/07/15 08:56:18;;;;;;;3.37;1.40;;;;;204.60;224519.00;;;;5067245;28;20239;-65
2022/07/15 08:59:07;;;;;;;2.07;1.20;;;;;204.60;224519.00;;;;5058021;28;20240;-67
2022/07/15 09:01:54;;;;;;;5.97;1.20;;;;;204.60;224519.00;;;;5060366;28;20231;-66
2022/07/15 09:05:14;;;;;;;1.93;0.97;;;;;204.60;224519.00;;;;5057887;28;20314;-68
2022/07/15 09:08:03;;;;;;;2.60;1.23;;;;;204.60;224519.00;;;;5061404;28;20232;-65
2022/07/15 09:10:52;;;;;;;1.80;1.00;;;;;204.60;224519.00;;;;5061019;28;20290;-68
2022/07/15 09:13:42;;;;;;;3.13;1.10;;;;;204.60;224519.00;;;;5065299;28;20282;-67
2022/07/15 09:16:28;;;;;;;1.07;0.90;;;;;204.60;224519.00;;;;5064492;28;20598;-68
2022/07/15 09:19:14;;;;;;;1.93;0.97;;;;;204.60;224519.00;;;;5067858;28;20335;-66
2022/07/15 09:22:02;;;;;;;2.93;1.23;;;;;204.60;224519.00;;;;5061245;28;20234;-65
2022/07/15 09:24:51;;;;;;;3.47;1.00;;;;;204.60;224519.00;;;;5061345;28;20243;-66
2022/07/15 09:27:39;;;;;;;3.40;1.20;;;;;204.60;224519.00;;;;5059346;28;20598;-66
2022/07/15 09:33:43;;;;;;;1.03;0.93;;;;;204.60;224519.00;;;;5015730;28;20233;-66
2022/07/15 09:36:32;;;;;;;2.10;0.80;;;;;204.60;224519.00;;;;5055465;28;20224;-67
2022/07/15 09:39:19;;;;;;;1.73;0.80;;;;;204.60;224519.00;;;;5065285;28;20602;-68
2022/07/15 09:42:08;;;;;;;1.23;0.97;;;;;204.60;224519.00;;;;5063377;28;20231;-67
2022/07/15 09:44:55;;;;;;;3.97;1.03;;;;;204.60;224519.00;;;;5063079;28;20746;-68
2022/07/15 09:47:42;;;;;;;2.40;1.00;;;;;204.60;224519.00;;;;5061948;28;20279;-65
2022/07/15 09:50:34;;;;;;;3.30;1.00;;;;;204.60;224519.00;;;;5059085;28;20232;-66
2022/07/15 09:53:20;;;;;;;2.27;0.93;;;;;204.60;224519.00;;;;5065044;28;20228;-68
2022/07/15 09:56:08;;;;;;;2.10;0.90;;;;;204.60;224519.00;;;;5064826;28;20606;-67
2022/07/15 09:58:55;;;;;;;2.60;0.93;;;;;204.60;224519.00;;;;5057525;28;20720;-65
2022/07/15 10:01:43;;;;;;;2.27;0.80;;;;;204.60;224519.00;;;;5062710;28;20743;-66
2022/07/15 10:04:31;;;;;;;1.67;1.20;;;;;204.60;224519.00;;;;5061379;28;20607;-65
2022/07/15 10:07:19;;;;;;;3.60;0.93;;;;;204.60;224519.00;;;;5065460;28;20711;-66
2022/07/15 10:10:15;;;;;;;2.03;0.77;;;;;204.60;224519.00;;;;5065455;28;20656;-65
2022/07/15 10:13:12;;;;;;;2.57;0.70;;;;;204.60;224519.00;;;;5061834;28;20621;-66
2022/07/15 10:16:11;;;;;;;1.10;0.80;;;;;204.60;224519.00;;;;5055804;28;20326;-66
2022/07/15 10:19:13;;;;;;;2.00;0.90;;;;;204.60;224519.00;;;;5057214;28;20225;-66
2022/07/15 10:22:09;;;;;;;2.73;1.00;;;;;204.60;224519.00;;;;5062119;28;20231;-67
2022/07/15 10:25:12;;;;;;;2.67;0.83;;;;;204.60;224519.00;;;;5059637;28;20231;-63
2022/07/15 10:28:05;;;;;;;1.20;0.77;;;;;204.60;224519.00;;;;5062290;28;20238;-65
2022/07/15 10:31:16;;;;;;;2.03;0.77;;;;;204.60;224519.00;;;;5065209;28;20604;-66
2022/07/15 10:34:21;;;;;;;0.80;0.80;;;;;204.60;224519.00;;;;5061418;28;20724;-65
2022/07/15 10:37:10;;;;;;;5.80;0.80;;;;;204.60;224519.00;;;;5059140;28;20235;-65
2022/07/15 10:40:06;;;;;;;1.73;0.70;;;;;204.60;224519.00;;;;5058545;28;20235;-67
2022/07/15 10:43:01;;;;;;;1.97;0.90;;;;;204.60;224519.00;;;;5059898;28;20229;-67
2022/07/15 10:46:04;;;;;;;0.73;0.70;;;;;204.60;224519.00;;;;5060652;28;20231;-67
2022/07/15 10:48:51;;;;;;;2.63;0.67;;;;;204.60;224519.00;;;;5051978;28;20234;-66
2022/07/15 10:51:48;;;;;;;2.00;0.80;;;;;204.60;224519.00;;;;5051643;28;20227;-65
2022/07/15 10:54:49;;;;;;;1.60;0.80;;;;;204.60;224519.00;;;;5064199;28;20234;-67
2022/07/15 10:57:53;;;;;;;0.90;0.80;;;;;204.60;224519.00;;;;5059475;28;20276;-65
2022/07/15 11:00:40;;;;;;;1.13;0.60;;;;;204.60;224519.00;;;;5059375;28;20229;-65
2022/07/15 11:03:27;;;;;;;1.60;0.90;;;;;204.60;224519.00;;;;5055796;28;20228;-66
2022/07/15 11:06:13;;;;;;;0.70;0.70;;;;;204.60;224519.00;;;;5061119;28;20294;-67
2022/07/15 11:09:01;;;;;;;1.60;0.70;;;;;204.60;224519.00;;;;5054936;28;20308;-67
2022/07/15 11:11:51;;;;;;;0.80;0.60;;;;;204.60;224519.00;;;;5055678;28;20230;-67
2022/07/15 11:14:49;;;;;;;3.77;1.50;;;;;204.60;224519.00;;;;5052963;28;20621;-68
2022/07/15 11:17:40;;;;;;;0.93;0.80;;;;;204.60;224519.00;;;;5056019;28;20301;-67
2022/07/15 11:20:30;;;;;;;0.77;0.57;;;;;204.60;224519.00;;;;5062963;28;20227;-67
2022/07/15 11:23:18;;;;;;;2.53;0.60;;;;;204.60;224519.00;;;;5061455;28;20305;-65
2022/07/15 11:26:08;;;;;;;2.30;0.70;;;;;204.60;224519.00;;;;5053719;28;20242;-67
2022/07/15 11:28:57;;;;;;;0.60;0.60;;;;;204.60;224519.00;;;;5060798;28;20702;-66
2022/07/15 11:31:44;;;;;;;0.60;0.60;;;;;204.60;224519.00;;;;5059710;28;20234;-66
2022/07/15 11:34:38;;;;;;;1.63;0.60;;;;;204.60;224519.00;;;;5054993;28;20245;-68
2022/07/15 11:37:25;;;;;;;0.60;0.60;;;;;204.60;224519.00;;;;5056558;28;22572;-67
2022/07/15 11:44:29;;;;;;;1.80;0.70;;;;;204.60;224519.00;;;;5063765;28;20300;-66
2022/07/15 11:46:28;;;;;;;0.70;0.53;;;;;204.60;224519.00;;;;5064659;28;20239;-68
2022/07/15 11:49:26;;;;;;;1.63;0.50;;;;;204.60;224519.00;;;;5060481;28;20225;-68
2022/07/15 11:52:22;;;;;;;0.40;0.40;;;;;204.60;224519.00;;;;5061633;28;20240;-67
2022/07/15 11:55:09;;;;;;;0.50;0.50;;;;;204.60;224519.00;;;;5063333;28;20317;-68
2022/07/15 11:57:56;;;;;;;0.60;0.60;;;;;204.60;224519.00;;;;5063819;28;20235;-68
2022/07/15 12:00:49;;;;;;;1.93;0.70;;;;;204.60;224519.00;;;;5062551;28;20247;-69
2022/07/15 12:03:40;;;;;;;0.77;0.60;;;;;204.60;224519.00;;;;5064774;28;20236;-68
2022/07/15 12:06:29;;;;;;;0.70;0.67;;;;;204.60;224519.00;;;;5067274;28;21866;-68
2022/07/15 12:09:15;;;;;;;1.70;0.70;;;;;204.60;224519.00;;;;5066518;28;20298;-68
2022/07/15 12:12:03;;;;;;;0.57;0.50;;;;;204.60;224519.00;;;;5062791;28;20238;-68
2022/07/15 12:14:51;;;;;;;0.50;0.50;;;;;204.60;224519.00;;;;5058500;28;20258;-68
2022/07/15 12:17:40;;;;;;;0.53;0.53;;;;;204.60;224519.00;;;;5061127;28;20819;-66
2022/07/15 12:20:27;;;;;;;0.70;0.60;;;;;204.60;224519.00;;;;5063834;28;20727;-67
2022/07/15 12:23:13;;;;;;;0.70;0.60;;;;;204.60;224519.00;;;;5065805;28;20235;-69
2022/07/15 12:26:04;;;;;;;1.80;0.60;;;;;204.60;224519.00;;;;5063372;28;20912;-68
2022/07/15 12:28:55;;;;;;;1.60;0.60;;;;;204.60;224519.00;;;;5068519;28;21075;-68
2022/07/15 12:31:43;;;;;;;1.43;0.70;;;;;204.60;224519.00;;;;5066017;28;20247;-64
2022/07/15 12:34:52;;;;;;;0.60;0.60;;;;;204.60;224519.00;;;;5067981;28;20228;-68
2022/07/15 12:37:49;;;;;;;0.60;0.60;;;;;204.60;224519.00;;;;5060283;28;20239;-69
2022/07/15 12:40:36;;;;;;;1.17;0.80;;;;;204.60;224519.00;;;;5065103;28;20220;-67
2022/07/15 12:43:42;;;;;;;2.00;0.70;;;;;204.60;224519.00;;;;5064368;28;20224;-68
2022/07/15 12:46:55;;;;;;;1.07;0.50;;;;;204.60;224519.00;;;;5066030;28;20728;-67
2022/07/15 12:49:49;;;;;;;0.57;0.50;;;;;204.60;224519.00;;;;5058673;28;20236;-69
2022/07/15 12:52:38;;;;;;;1.73;0.60;;;;;204.60;224519.00;;;;5060238;28;20242;-68
2022/07/15 12:55:26;;;;;;;0.93;0.80;;;;;204.60;224519.00;;;;5064998;28;20322;-65
2022/07/15 12:58:15;;;;;;;0.83;0.50;;;;;204.60;224519.00;;;;5065328;28;20244;-68
2022/07/15 13:01:10;;;;;;;0.87;0.57;;;;;204.60;224519.00;;;;5065825;28;20236;-70
2022/07/15 13:03:56;;;;;;;0.43;0.43;;;;;204.60;224519.00;;;;5056456;28;20236;-67
2022/07/15 13:06:44;;;;;;;0.80;0.70;;;;;204.60;224519.00;;;;5055840;28;20357;-68
2022/07/15 13:09:30;;;;;;;0.60;0.60;;;;;204.60;224519.00;;;;5062041;28;20227;-69
2022/07/15 13:12:17;;;;;;;1.97;0.53;;;;;204.60;224519.00;;;;5058826;28;20709;-64
2022/07/15 13:15:04;;;;;;;1.53;0.50;;;;;204.60;224519.00;;;;5067821;28;20603;-66
2022/07/15 13:17:50;;;;;;;1.37;0.60;;;;;204.60;224519.00;;;;5060452;28;20239;-68
2022/07/15 13:20:37;;;;;;;0.93;0.60;;;;;204.60;224519.00;;;;5063078;28;20227;-69
2022/07/15 13:23:25;;;;;;;0.50;0.50;;;;;204.60;224519.00;;;;5051238;28;20602;-66
2022/07/15 13:26:12;;;;;;;0.70;0.70;;;;;204.60;224519.00;;;;5064903;28;20239;-65
2022/07/15 13:28:58;;;;;;;0.83;0.60;;;;;204.60;224519.00;;;;5056650;28;20224;-65
2022/07/15 13:31:44;;;;;;;1.07;0.50;;;;;204.60;224519.00;;;;5055790;28;20228;-68
2022/07/15 13:34:31;;;;;;;0.70;0.70;;;;;204.60;224519.00;;;;5055916;28;20308;-71
2022/07/15 13:37:17;;;;;;;1.40;0.60;;;;;204.60;224519.00;;;;5065768;28;20232;-67
2022/07/15 13:40:06;;;;;;;0.40;0.40;;;;;204.60;224519.00;;;;5059021;28;20274;-68
2022/07/15 13:42:53;;;;;;;0.60;0.60;;;;;204.60;224519.00;;;;5064918;28;20362;-68
2022/07/15 13:45:39;;;;;;;0.97;0.60;;;;;204.60;224519.00;;;;5060447;28;20367;-69
2022/07/15 13:48:32;;;;;;;0.67;0.67;;;;;204.60;224519.00;;;;5059795;28;20279;-68
2022/07/15 13:51:23;;;;;;;0.80;0.80;;;;;204.60;224519.00;;;;5057413;28;20225;-65
2022/07/15 13:54:10;;;;;;;1.97;0.70;;;;;204.60;224519.00;;;;5066003;28;20355;-68